Terminal Aerodrome Forecast
Issued by NWS Caribou, ME

Home | Current Version | Previous Version | Text Only | Print | Product List | Glossary On
Versions: 1 2 3 4 5 6 7 8 9 10 11 12 13 14 15 16 17 18 19
926
FTUS41 KCAR 241856 AAA
TAFBGR
TAF AMD
KBGR 241856Z 2419/2518 31010G18KT P6SM BKN060
     FM250000 32007KT P6SM FEW250
     FM250300 32004KT P6SM FEW050
     FM251500 32010G19KT P6SM SCT250=

USA.gov is the U.S. government's official web portal to all federal, state and local government web resources and services.